createdAt,value
2018-12-26T00:01:09.798Z,6.10
2018-12-26T00:03:40.512Z,10.28
2018-12-26T00:06:11.123Z,5.28
2018-12-26T00:08:42.645Z,7.85
2018-12-26T00:11:13.019Z,3.83
2018-12-26T00:13:44.113Z,13.40
2018-12-26T00:16:14.432Z,5.28
2018-12-26T00:18:44.991Z,10.23
2018-12-26T00:21:15.424Z,2.50
2018-12-26T00:23:45.769Z,3.58
2018-12-26T00:26:16.213Z,14.53
2018-12-26T00:28:46.873Z,10.03
2018-12-26T00:31:17.202Z,6.03
2018-12-26T00:33:47.934Z,5.20
2018-12-26T00:36:18.258Z,11.55
2018-12-26T00:38:48.892Z,2.77
2018-12-26T00:41:19.515Z,4.65
2018-12-26T00:43:49.870Z,9.38
2018-12-26T00:46:20.190Z,3.47
2018-12-26T00:48:50.554Z,5.80
2018-12-26T00:51:22.426Z,11.38
2018-12-26T00:54:01.491Z,4.15
2018-12-26T00:56:31.814Z,5.60
2018-12-26T00:59:02.923Z,5.83
2018-12-26T01:01:33.313Z,5.15
2018-12-26T01:04:03.635Z,3.30
2018-12-26T01:06:34.622Z,5.78
2018-12-26T01:09:07.586Z,16.35
2018-12-26T01:11:37.939Z,16.70
2018-12-26T01:14:08.261Z,15.63
2018-12-26T01:16:38.759Z,17.50
2018-12-26T01:19:09.393Z,14.93
2018-12-26T01:21:40.146Z,21.05
2018-12-26T01:24:10.910Z,16.35
2018-12-26T01:26:41.230Z,12.68
2018-12-26T01:29:11.928Z,10.88
2018-12-26T01:31:42.266Z,10.90
2018-12-26T01:34:12.879Z,8.35
2018-12-26T01:36:43.563Z,12.15
2018-12-26T01:39:14.517Z,9.05
2018-12-26T01:41:44.852Z,4.45
2018-12-26T01:44:15.836Z,12.10
2018-12-26T01:46:46.346Z,7.78
2018-12-26T01:49:16.688Z,4.62
2018-12-26T01:51:47.006Z,4.72
2018-12-26T01:54:17.692Z,3.65
2018-12-26T01:56:48.044Z,3.50
2018-12-26T01:59:18.566Z,6.87
2018-12-26T02:01:48.913Z,6.42
2018-12-26T02:04:19.308Z,14.10
2018-12-26T02:06:49.648Z,4.35
2018-12-26T02:09:20.773Z,5.65
2018-12-26T02:11:51.778Z,3.27
2018-12-26T02:14:22.675Z,4.58
2018-12-26T02:16:53.711Z,5.00
2018-12-26T02:19:24.005Z,5.83
2018-12-26T02:21:54.347Z,6.10
2018-12-26T02:24:27.736Z,6.85
2018-12-26T02:26:58.052Z,6.83
2018-12-26T02:29:28.679Z,4.70
2018-12-26T02:31:59.318Z,3.65
2018-12-26T02:34:29.636Z,6.05
2018-12-26T02:37:00.256Z,7.10
2018-12-26T02:39:30.987Z,8.10
2018-12-26T02:42:01.586Z,6.97
2018-12-26T02:44:32.270Z,11.57
2018-12-26T02:47:03.039Z,11.95
2018-12-26T02:49:33.770Z,5.12
2018-12-26T02:52:04.085Z,6.00
2018-12-26T02:54:34.545Z,8.05
2018-12-26T02:57:05.134Z,5.35
2018-12-26T02:59:35.455Z,13.78
2018-12-26T03:02:06.237Z,6.12
2018-12-26T03:04:36.557Z,6.15
2018-12-26T03:07:07.259Z,7.78
2018-12-26T03:09:37.619Z,5.87
2018-12-26T03:12:08.340Z,5.67
2018-12-26T03:14:38.698Z,6.90
2018-12-26T03:17:09.056Z,7.08
2018-12-26T03:19:39.430Z,12.80
2018-12-26T03:22:09.748Z,9.15
2018-12-26T03:24:40.231Z,8.73
2018-12-26T03:27:10.584Z,14.75
2018-12-26T03:29:40.904Z,9.53
2018-12-26T03:32:11.306Z,15.68
2018-12-26T03:34:41.639Z,11.63
2018-12-26T03:37:12.256Z,15.90
2018-12-26T03:39:43.137Z,14.30
2018-12-26T03:42:13.833Z,14.38
2018-12-26T03:44:44.161Z,13.75
2018-12-26T03:47:14.532Z,15.65
2018-12-26T03:49:45.127Z,17.17
2018-12-26T03:52:15.455Z,18.30
2018-12-26T03:54:46.504Z,13.58
2018-12-26T03:57:17.009Z,14.63
2018-12-26T03:59:47.729Z,13.62
2018-12-26T04:02:18.476Z,16.42
2018-12-26T04:04:48.837Z,16.77
2018-12-26T04:07:19.167Z,15.13
2018-12-26T04:09:49.924Z,20.35
2018-12-26T04:12:20.523Z,19.45
2018-12-26T04:14:51.186Z,19.30
2018-12-26T04:17:21.875Z,21.23
2018-12-26T04:19:52.781Z,16.62
2018-12-26T04:22:23.479Z,21.65
2018-12-26T04:24:53.869Z,20.23
2018-12-26T04:27:24.217Z,21.02
2018-12-26T04:29:54.843Z,17.57
2018-12-26T04:32:25.650Z,16.10
2018-12-26T04:34:56.400Z,17.55
2018-12-26T04:37:26.726Z,26.07
2018-12-26T04:39:57.150Z,20.82
2018-12-26T04:42:27.479Z,15.68
2018-12-26T04:44:57.816Z,19.15
2018-12-26T04:47:28.518Z,19.35
2018-12-26T04:49:58.968Z,15.23
2018-12-26T04:52:29.279Z,16.25
2018-12-26T04:54:59.704Z,16.85
2018-12-26T04:57:33.057Z,16.80
2018-12-26T05:00:05.229Z,14.45
2018-12-26T05:02:35.590Z,18.77
2018-12-26T05:05:06.289Z,23.32
2018-12-26T05:07:37.006Z,21.50
2018-12-26T05:10:08.059Z,19.15
2018-12-26T05:12:38.771Z,26.12
2018-12-26T05:15:09.818Z,25.35
2018-12-26T05:17:40.761Z,22.10
2018-12-26T05:20:11.218Z,19.92
2018-12-26T05:22:41.822Z,22.70
2018-12-26T05:25:12.333Z,27.15
2018-12-26T05:27:43.251Z,24.85
2018-12-26T05:30:13.899Z,23.25
2018-12-26T05:32:44.259Z,22.90
2018-12-26T05:35:14.622Z,29.65
2018-12-26T05:37:45.317Z,23.07
2018-12-26T05:40:16.059Z,31.07
2018-12-26T05:42:46.666Z,22.42
2018-12-26T05:45:17.701Z,25.37
2018-12-26T05:47:48.076Z,26.95
2018-12-26T05:50:18.433Z,28.02
2018-12-26T05:52:48.765Z,23.87
2018-12-26T05:55:19.926Z,22.25
2018-12-26T05:57:50.289Z,26.85
2018-12-26T06:00:20.618Z,26.52
2018-12-26T06:02:51.311Z,26.37
2018-12-26T06:05:22.009Z,20.65
2018-12-26T06:07:53.088Z,30.92
2018-12-26T06:10:23.672Z,21.05
2018-12-26T06:12:54.003Z,27.70
2018-12-26T06:15:25.420Z,23.50
2018-12-26T06:17:56.129Z,31.70
2018-12-26T06:20:26.781Z,24.82
2018-12-26T06:22:57.131Z,28.57
2018-12-26T06:25:27.612Z,26.77
2018-12-26T06:27:58.021Z,26.42
2018-12-26T06:30:28.690Z,28.10
2018-12-26T06:32:59.443Z,27.07
2018-12-26T06:35:30.175Z,28.00
2018-12-26T06:38:01.560Z,26.35
2018-12-26T06:40:32.599Z,24.92
2018-12-26T06:43:02.970Z,24.82
2018-12-26T06:45:33.663Z,26.87
2018-12-26T06:48:04.365Z,25.80
2018-12-26T06:50:35.091Z,24.85
2018-12-26T06:53:05.740Z,33.08
2018-12-26T06:55:36.139Z,25.82
2018-12-26T06:58:06.469Z,23.52
2018-12-26T07:00:37.174Z,23.47
2018-12-26T07:03:07.536Z,23.40
2018-12-26T07:05:37.863Z,25.45
2018-12-26T07:08:08.191Z,23.35
2018-12-26T07:10:38.568Z,26.27
2018-12-26T07:13:08.898Z,27.32
2018-12-26T07:15:39.253Z,33.55
2018-12-26T07:18:09.931Z,36.03
2018-12-26T07:20:40.691Z,27.17
2018-12-26T07:23:11.033Z,27.50
2018-12-26T07:25:41.718Z,33.55
2018-12-26T07:28:12.349Z,27.50
2018-12-26T07:30:42.762Z,30.35
2018-12-26T07:33:13.401Z,27.55
2018-12-26T07:35:44.034Z,29.70
2018-12-26T07:38:14.993Z,27.75
2018-12-26T07:40:45.385Z,26.80
2018-12-26T07:43:15.711Z,25.08
2018-12-26T07:45:46.415Z,29.37
2018-12-26T07:48:16.792Z,22.42
2018-12-26T07:50:47.790Z,24.23
2018-12-26T07:53:18.128Z,25.70
2018-12-26T07:55:48.506Z,33.92
2018-12-26T07:58:19.253Z,30.35
2018-12-26T08:00:49.666Z,27.32
2018-12-26T08:03:20.034Z,23.62
2018-12-26T08:05:50.932Z,28.17
2018-12-26T08:08:21.290Z,25.00
2018-12-26T08:10:51.668Z,27.73
2018-12-26T08:13:22.002Z,26.15
2018-12-26T08:15:52.353Z,21.30
2018-12-26T08:18:22.729Z,27.17
2018-12-26T08:20:53.952Z,22.58
2018-12-26T08:23:24.781Z,21.68
2018-12-26T08:25:55.993Z,22.87
2018-12-26T08:28:27.055Z,22.87
2018-12-26T08:30:57.793Z,28.87
2018-12-26T08:33:28.178Z,23.83
2018-12-26T08:35:58.852Z,27.07
2018-12-26T08:38:29.183Z,23.70
2018-12-26T08:40:59.863Z,25.10
2018-12-26T08:43:30.197Z,24.25
2018-12-26T08:46:00.516Z,25.65
2018-12-26T08:48:31.200Z,28.05
2018-12-26T08:51:01.836Z,23.85
2018-12-26T08:53:32.481Z,24.82
2018-12-26T08:56:02.941Z,26.97
2018-12-26T08:58:35.246Z,26.10
2018-12-26T09:01:05.775Z,24.50
2018-12-26T09:03:36.426Z,22.02
2018-12-26T09:06:07.044Z,23.42
2018-12-26T09:08:37.716Z,28.67
2018-12-26T09:11:08.125Z,28.32
2018-12-26T09:13:38.455Z,29.60
2018-12-26T09:16:09.175Z,27.48
2018-12-26T09:18:39.627Z,29.07
2018-12-26T09:21:09.975Z,31.33
2018-12-26T09:23:40.334Z,22.20
2018-12-26T09:26:11.127Z,27.62
2018-12-26T09:28:43.869Z,26.45
2018-12-26T09:31:13.574Z,26.23
2018-12-26T09:33:44.229Z,27.37
2018-12-26T09:36:15.069Z,31.10
2018-12-26T09:38:45.399Z,24.30
2018-12-26T09:41:15.796Z,26.60
2018-12-26T09:43:46.153Z,23.35
2018-12-26T09:46:16.823Z,23.35
2018-12-26T09:48:47.855Z,24.82
2018-12-26T09:51:18.213Z,26.70
2018-12-26T09:53:50.191Z,26.17
2018-12-26T09:56:21.054Z,26.17
2018-12-26T09:58:52.573Z,26.15
2018-12-26T10:01:23.445Z,22.35
2018-12-26T10:03:54.178Z,22.80
2018-12-26T10:06:24.785Z,24.65
2018-12-26T10:08:55.480Z,21.70
2018-12-26T10:11:26.211Z,17.95
2018-12-26T10:13:57.157Z,19.60
2018-12-26T10:16:27.895Z,20.65
2018-12-26T10:18:58.299Z,20.90
2018-12-26T10:21:28.657Z,18.45
2018-12-26T10:23:59.007Z,16.75
2018-12-26T10:26:29.715Z,19.30
2018-12-26T10:29:00.999Z,17.25
2018-12-26T10:31:31.957Z,13.00
2018-12-26T10:34:02.305Z,15.32
2018-12-26T10:36:32.657Z,16.12
2018-12-26T10:39:03.932Z,11.80
2018-12-26T10:41:34.314Z,14.10
2018-12-26T10:44:04.651Z,13.88
2018-12-26T10:46:34.997Z,11.63
2018-12-26T10:49:05.727Z,12.50
2018-12-26T10:52:46.516Z,13.13
2018-12-26T10:55:16.933Z,11.43
2018-12-26T10:57:47.569Z,13.30
2018-12-26T11:00:17.899Z,13.05
2018-12-26T11:02:48.671Z,11.50
2018-12-26T11:05:18.995Z,11.78
2018-12-26T11:07:49.691Z,13.58
2018-12-26T11:10:20.335Z,14.47
2018-12-26T11:12:50.685Z,15.78
2018-12-26T11:15:21.379Z,14.23
2018-12-26T11:17:52.254Z,15.93
2018-12-26T11:20:22.618Z,14.60
2018-12-26T11:22:53.274Z,14.38
2018-12-26T11:25:24.437Z,13.40
2018-12-26T11:27:54.763Z,17.52
2018-12-26T11:30:25.109Z,15.80
2018-12-26T11:32:55.513Z,16.73
2018-12-26T11:35:26.547Z,15.32
2018-12-26T11:37:56.905Z,16.87
2018-12-26T11:40:27.730Z,23.32
2018-12-26T11:42:58.060Z,16.27
2018-12-26T11:45:28.457Z,16.95
2018-12-26T11:47:59.147Z,20.12
2018-12-26T11:50:29.756Z,16.15
2018-12-26T11:53:00.515Z,17.20
2018-12-26T11:55:31.216Z,18.98
2018-12-26T11:58:01.571Z,13.38
2018-12-26T12:00:32.456Z,15.35
2018-12-26T12:03:03.237Z,14.38
2018-12-26T12:05:33.617Z,23.00
2018-12-26T12:08:03.974Z,17.65
2018-12-26T12:10:34.331Z,16.12
2018-12-26T12:13:04.663Z,14.28
2018-12-26T12:15:35.050Z,13.45
2018-12-26T12:18:05.429Z,13.83
2018-12-26T12:20:36.061Z,13.58
2018-12-26T12:23:06.787Z,18.57
2018-12-26T12:25:37.527Z,14.05
2018-12-26T12:28:07.867Z,14.80
2018-12-26T12:30:38.197Z,13.43
2018-12-26T12:33:08.885Z,17.35
2018-12-26T12:35:39.628Z,15.80
2018-12-26T12:38:10.544Z,13.50
2018-12-26T12:40:41.005Z,16.30
2018-12-26T12:43:12.339Z,20.92
2018-12-26T12:45:43.067Z,17.15
2018-12-26T12:48:13.472Z,22.48
2018-12-26T12:50:44.123Z,21.45
2018-12-26T12:53:14.457Z,15.75
2018-12-26T12:55:45.681Z,17.27
2018-12-26T12:58:16.641Z,16.97
2018-12-26T13:00:47.299Z,24.50
2018-12-26T13:03:17.668Z,20.65
2018-12-26T13:05:48.002Z,17.27
2018-12-26T13:08:18.719Z,19.45
2018-12-26T13:10:49.414Z,24.02
2018-12-26T13:13:20.134Z,22.17
2018-12-26T13:15:50.494Z,35.98
2018-12-26T13:18:21.357Z,22.90
2018-12-26T13:20:51.770Z,49.15
2018-12-26T13:23:22.125Z,22.40
2018-12-26T13:25:52.529Z,27.32
2018-12-26T13:28:23.230Z,18.73
2018-12-26T13:30:53.581Z,21.93
2018-12-26T13:33:25.637Z,27.95
2018-12-26T13:35:55.970Z,24.95
2018-12-26T13:38:26.325Z,30.92
2018-12-26T13:40:57.326Z,25.32
2018-12-26T13:43:27.679Z,29.55
2018-12-26T13:45:58.034Z,30.68
2018-12-26T13:48:28.849Z,29.63
2018-12-26T13:50:59.182Z,29.85
2018-12-26T13:53:29.656Z,27.95
2018-12-26T13:56:00.445Z,27.67
2018-12-26T13:58:31.148Z,30.48
2018-12-26T14:01:03.021Z,24.60
2018-12-26T14:03:33.691Z,25.85
2018-12-26T14:06:04.576Z,31.80
2018-12-26T14:08:34.908Z,31.68
2018-12-26T14:11:05.364Z,28.98
2018-12-26T14:13:36.062Z,31.37
2018-12-26T14:16:06.698Z,39.83
2018-12-26T14:18:37.536Z,28.00
2018-12-26T14:21:07.867Z,27.52
2018-12-26T14:23:38.197Z,32.33
2018-12-26T14:26:08.975Z,30.62
2018-12-26T14:28:39.330Z,29.00
2018-12-26T14:31:09.660Z,31.62
2018-12-26T14:33:40.394Z,27.93
2018-12-26T14:36:10.752Z,33.55
2018-12-26T14:38:41.800Z,35.05
2018-12-26T14:41:12.178Z,41.10
2018-12-26T14:43:42.533Z,29.37
2018-12-26T14:46:13.196Z,35.35
2018-12-26T14:48:43.630Z,35.05
2018-12-26T14:51:13.991Z,33.10
2018-12-26T14:53:44.683Z,32.42
2018-12-26T14:56:15.017Z,42.75
2018-12-26T14:58:45.375Z,35.63
2018-12-26T15:01:15.725Z,34.63
2018-12-26T15:03:46.478Z,40.10
2018-12-26T15:06:17.192Z,34.15
2018-12-26T15:08:47.728Z,32.08
2018-12-26T15:11:18.113Z,38.90
2018-12-26T15:14:08.180Z,36.48
2018-12-26T15:16:51.825Z,30.92
2018-12-26T15:19:41.577Z,30.62
2018-12-26T15:22:26.854Z,31.77
2018-12-26T15:25:16.960Z,39.13
2018-12-26T15:28:00.115Z,29.20
2018-12-26T15:30:50.194Z,27.87
2018-12-26T15:33:33.111Z,38.73
2018-12-26T15:36:23.207Z,36.60
2018-12-26T15:39:07.800Z,37.70
2018-12-26T15:41:57.827Z,32.10
2018-12-26T15:44:42.635Z,33.80
2018-12-26T15:47:32.722Z,33.98
2018-12-26T15:50:17.462Z,34.83
2018-12-26T15:57:07.272Z,27.82
2018-12-26T15:59:57.418Z,30.97
2018-12-26T16:02:40.434Z,32.10
2018-12-26T16:05:30.192Z,29.42
2018-12-26T16:08:14.532Z,32.33
2018-12-26T16:11:04.989Z,26.02
2018-12-26T16:13:47.528Z,32.20
2018-12-26T16:16:37.653Z,26.05
2018-12-26T16:19:22.075Z,23.42
2018-12-26T16:22:11.836Z,28.57
2018-12-26T16:24:54.234Z,33.42
2018-12-26T16:27:44.256Z,23.92
2018-12-26T16:30:25.147Z,24.30
2018-12-26T16:36:16.602Z,22.60
2018-12-26T16:38:46.969Z,25.08
2018-12-26T16:41:36.749Z,24.18
2018-12-26T16:44:19.769Z,23.10
2018-12-26T16:47:02.960Z,23.18
2018-12-26T16:49:52.894Z,27.00
2018-12-26T16:52:35.736Z,29.65
2018-12-26T16:58:52.790Z,22.77
2018-12-26T17:01:42.560Z,27.93
2018-12-26T17:04:25.099Z,28.67
2018-12-26T17:07:14.855Z,29.75
2018-12-26T17:09:58.363Z,28.95
2018-12-26T17:12:48.119Z,32.55
2018-12-26T17:15:32.663Z,37.20
2018-12-26T17:18:22.442Z,31.65
2018-12-26T17:21:05.238Z,34.70
2018-12-26T17:26:56.551Z,33.60
2018-12-26T17:29:46.337Z,31.68
2018-12-26T17:32:28.712Z,34.48
2018-12-26T17:35:18.815Z,29.87
2018-12-26T17:38:01.697Z,30.85
2018-12-26T17:40:51.459Z,31.77
2018-12-26T17:43:36.080Z,29.32
2018-12-26T17:46:18.767Z,34.50
2018-12-26T17:49:08.615Z,33.55
2018-12-26T17:51:53.144Z,33.18
2018-12-26T17:55:04.263Z,36.42
2018-12-26T17:57:47.335Z,35.68
2018-12-26T18:04:06.247Z,31.60
2018-12-26T18:06:56.307Z,39.10
2018-12-26T18:09:38.973Z,34.00
2018-12-26T18:12:28.995Z,30.23
2018-12-26T18:15:09.967Z,41.55
2018-12-26T18:21:01.650Z,32.93
2018-12-26T18:23:51.434Z,37.40
2018-12-26T18:26:33.722Z,36.30
2018-12-26T18:29:23.838Z,31.42
2018-12-26T18:32:06.306Z,33.80
2018-12-26T18:34:56.342Z,37.55
2018-12-26T18:37:37.326Z,37.55
2018-12-26T18:40:27.116Z,40.15
2018-12-26T18:43:11.342Z,46.25
2018-12-26T18:46:01.127Z,39.45
2018-12-26T18:48:45.140Z,38.45
2018-12-26T18:51:35.274Z,51.13
2018-12-26T18:54:18.358Z,52.55
2018-12-26T18:57:08.597Z,49.70
2018-12-26T18:59:51.277Z,56.02
2018-12-26T19:02:41.321Z,59.35
2018-12-26T19:05:24.104Z,59.65
2018-12-26T19:08:13.902Z,62.58
2018-12-26T19:10:56.933Z,64.62
2018-12-26T19:13:46.718Z,59.33
2018-12-26T19:16:29.655Z,59.65
2018-12-26T19:19:20.067Z,64.30
2018-12-26T19:22:03.108Z,70.32
2018-12-26T19:24:52.860Z,78.52
2018-12-26T19:27:36.288Z,80.05
2018-12-26T19:30:26.361Z,90.85
2018-12-26T19:33:09.165Z,89.97
2018-12-26T19:39:26.406Z,84.75
2018-12-26T19:42:16.467Z,92.00
2018-12-26T19:45:00.872Z,92.57
2018-12-26T19:47:51.298Z,93.42
2018-12-26T19:50:35.672Z,94.15
2018-12-26T19:53:25.453Z,108.27
2018-12-26T19:56:07.845Z,103.62
2018-12-26T19:58:57.630Z,91.05
2018-12-26T20:01:48.122Z,103.50
2018-12-26T20:04:32.322Z,101.35
2018-12-26T20:07:15.051Z,110.80
2018-12-26T20:10:25.861Z,102.35
2018-12-26T20:13:06.533Z,90.55
2018-12-26T20:15:56.619Z,86.00
2018-12-26T20:18:39.209Z,108.35
2018-12-26T20:24:55.901Z,91.50
2018-12-26T20:27:46.058Z,93.65
2018-12-26T20:30:35.879Z,95.90
2018-12-26T20:33:18.774Z,96.45
2018-12-26T20:36:08.566Z,81.92
2018-12-26T20:38:50.842Z,84.45
2018-12-26T20:41:40.979Z,93.82
2018-12-26T20:44:25.460Z,83.40
2018-12-26T20:47:15.269Z,87.80
2018-12-26T20:49:59.853Z,88.87
2018-12-26T20:52:49.943Z,96.60
2018-12-26T20:55:32.978Z,83.90
2018-12-26T20:58:22.778Z,91.85
2018-12-26T21:01:03.450Z,88.07
2018-12-26T21:03:46.282Z,85.45
2018-12-26T21:06:36.062Z,87.88
2018-12-26T21:09:20.784Z,83.65
2018-12-26T21:12:10.568Z,108.17
2018-12-26T21:14:54.047Z,96.00
2018-12-26T21:17:44.087Z,86.10
2018-12-26T21:20:26.913Z,94.45
2018-12-26T21:23:16.676Z,100.67
2018-12-26T21:25:59.542Z,88.97
2018-12-26T21:28:42.294Z,92.17
2018-12-26T21:31:34.065Z,90.47
2018-12-26T21:34:36.232Z,94.10
2018-12-26T21:40:34.078Z,93.67
2018-12-26T21:43:24.070Z,100.42
2018-12-26T21:46:07.071Z,103.85
2018-12-26T21:48:56.966Z,105.55
2018-12-26T21:51:39.999Z,101.42
2018-12-26T21:54:29.789Z,103.30
2018-12-26T21:57:31.552Z,94.90
2018-12-26T22:00:21.635Z,111.62
2018-12-26T22:03:04.850Z,100.05
2018-12-26T22:05:55.233Z,101.75
2018-12-26T22:08:40.265Z,108.57
2018-12-26T22:11:30.061Z,99.65
2018-12-26T22:14:13.179Z,104.15
2018-12-26T22:17:03.238Z,101.47
2018-12-26T22:19:46.172Z,117.05
2018-12-26T22:22:55.092Z,96.45
2018-12-26T22:25:39.559Z,104.25
2018-12-26T22:28:22.247Z,101.47
2018-12-26T22:31:13.846Z,109.07
2018-12-26T22:33:56.797Z,93.62
2018-12-26T22:36:46.893Z,81.40
2018-12-26T22:39:29.553Z,97.70
2018-12-26T22:42:19.312Z,97.95
2018-12-26T22:45:01.754Z,102.42
2018-12-26T22:47:51.920Z,92.80
2018-12-26T22:50:35.875Z,94.45
2018-12-26T22:53:25.631Z,89.65
2018-12-26T22:56:10.355Z,87.25
2018-12-26T22:59:00.454Z,88.30
2018-12-26T23:01:43.580Z,77.15
2018-12-26T23:04:33.421Z,80.00
2018-12-26T23:07:18.420Z,76.30
2018-12-26T23:10:08.206Z,78.25
2018-12-26T23:12:51.294Z,70.08
2018-12-26T23:18:42.809Z,67.80
2018-12-26T23:21:32.661Z,71.17
2018-12-26T23:24:15.997Z,69.65
2018-12-26T23:26:58.571Z,74.35
2018-12-26T23:29:48.646Z,70.03
2018-12-26T23:32:31.854Z,63.90
2018-12-26T23:35:21.645Z,70.42
2018-12-26T23:38:04.159Z,67.60
2018-12-26T23:40:54.219Z,64.50
2018-12-26T23:43:38.422Z,66.77
2018-12-26T23:46:28.482Z,62.30
2018-12-26T23:49:09.420Z,63.17
2018-12-26T23:51:52.882Z,59.33
2018-12-26T23:54:42.973Z,65.42
2018-12-26T23:57:25.324Z,71.42
